createdAt,value
2019-03-23T00:00:07.222Z,12.7
2019-03-23T00:01:19.380Z,12.4
2019-03-23T00:03:43.669Z,12.4
2019-03-23T00:04:55.986Z,13.3
2019-03-23T00:06:08.111Z,13.6
2019-03-23T00:07:20.470Z,13.5
2019-03-23T00:08:32.513Z,16.6
2019-03-23T00:09:44.723Z,20.5
2019-03-23T00:10:56.851Z,16.2
2019-03-23T00:12:09.147Z,13.5
2019-03-23T00:13:21.314Z,14.9
2019-03-23T00:15:45.617Z,16.7
2019-03-23T00:16:57.816Z,16.3
2019-03-23T00:18:10.031Z,18.2
2019-03-23T00:19:22.644Z,18.7
2019-03-23T00:20:34.425Z,17.3
2019-03-23T00:21:46.681Z,22.6
2019-03-23T00:22:58.837Z,20.3
2019-03-23T00:24:11.063Z,23.2
2019-03-23T00:25:23.313Z,19.9
2019-03-23T00:26:35.479Z,23.2
2019-03-23T00:27:47.637Z,23.8
2019-03-23T00:29:00.058Z,23.6
2019-03-23T00:30:12.071Z,25
2019-03-23T00:31:24.306Z,25.5
2019-03-23T00:32:36.360Z,25
2019-03-23T00:33:48.628Z,25.9
2019-03-23T00:35:00.805Z,25.4
2019-03-23T00:36:12.947Z,24.8
2019-03-23T00:37:25.219Z,26.9
2019-03-23T00:39:49.528Z,29.1
2019-03-23T00:41:01.805Z,29.7
2019-03-23T00:42:14.022Z,29.8
2019-03-23T00:43:26.188Z,25.7
2019-03-23T00:44:38.394Z,27.1
2019-03-23T00:45:50.529Z,28.9
2019-03-23T00:47:02.748Z,28.5
2019-03-23T00:48:14.898Z,31.3
2019-03-23T00:49:27.088Z,29.6
2019-03-23T00:50:39.372Z,30.8
2019-03-23T00:51:51.509Z,31
2019-03-23T00:53:03.739Z,31.7
2019-03-23T00:54:15.939Z,30.8
2019-03-23T00:55:28.164Z,31.1
2019-03-23T00:56:40.657Z,32.4
2019-03-23T00:57:52.592Z,33.6
2019-03-23T00:59:04.648Z,31.7
2019-03-23T01:00:16.890Z,32
2019-03-23T01:01:29.430Z,32.1
2019-03-23T01:05:10.339Z,34.6
2019-03-23T01:06:17.820Z,37.6
2019-03-23T01:07:30.113Z,37
2019-03-23T01:08:42.248Z,33.3
2019-03-23T01:09:54.426Z,38.8
2019-03-23T01:11:06.697Z,37.2
2019-03-23T01:12:18.941Z,35.2
2019-03-23T01:13:31.141Z,36.7
2019-03-23T01:15:55.590Z,37.8
2019-03-23T01:17:07.943Z,39.5
2019-03-23T01:18:19.875Z,35.9
2019-03-23T01:19:31.967Z,38.9
2019-03-23T01:20:44.300Z,37.4
2019-03-23T01:21:56.454Z,38.9
2019-03-23T01:23:08.561Z,38.4
2019-03-23T01:24:20.856Z,41.1
2019-03-23T01:25:32.954Z,40
2019-03-23T01:30:21.735Z,41.2
2019-03-23T01:31:34.036Z,39.7
2019-03-23T01:32:46.150Z,37.7
2019-03-23T01:33:58.389Z,40.9
2019-03-23T01:35:10.512Z,36.3
2019-03-23T01:36:22.825Z,38.8
2019-03-23T01:37:34.967Z,42
2019-03-23T01:41:11.563Z,40.3
2019-03-23T01:43:35.980Z,38.1
2019-03-23T01:44:48.070Z,38.3
2019-03-23T01:46:00.344Z,39.6
2019-03-23T01:47:12.454Z,42
2019-03-23T01:48:24.638Z,38.5
2019-03-23T01:49:36.857Z,40.2
2019-03-23T01:52:01.402Z,41.9
2019-03-23T01:53:13.514Z,41.6
2019-03-23T01:54:25.635Z,42.3
2019-03-23T01:55:37.895Z,41.2
2019-03-23T01:56:50.026Z,39.7
2019-03-23T01:58:02.213Z,41.8
2019-03-23T01:59:14.404Z,43.6
2019-03-23T02:00:26.679Z,41.1
2019-03-23T02:01:38.811Z,39.1
2019-03-23T02:04:03.289Z,44.8
2019-03-23T02:05:15.392Z,40.2
2019-03-23T02:06:27.637Z,39.1
2019-03-23T02:07:39.926Z,44.7
2019-03-23T02:08:51.963Z,47
2019-03-23T02:10:04.267Z,45.4
2019-03-23T02:12:28.665Z,46.9
2019-03-23T02:13:40.785Z,46.1
2019-03-23T02:14:52.940Z,50.1
2019-03-23T02:16:05.185Z,48.5
2019-03-23T02:17:17.372Z,49.3
2019-03-23T02:18:29.545Z,48.1
2019-03-23T02:19:41.927Z,49.1
2019-03-23T02:20:53.992Z,50.3
2019-03-23T02:22:06.266Z,49.7
2019-03-23T02:23:18.409Z,50.8
2019-03-23T02:24:30.604Z,52.4
2019-03-23T02:25:42.717Z,49.6
2019-03-23T02:28:07.108Z,52.1
2019-03-23T02:29:19.362Z,51
2019-03-23T02:30:31.499Z,52.2
2019-03-23T02:31:43.690Z,49.4
2019-03-23T02:33:00.035Z,52.9
2019-03-23T02:34:08.063Z,52.9
2019-03-23T02:35:20.311Z,51.9
2019-03-23T02:36:32.584Z,50.3
2019-03-23T02:37:44.670Z,56.7
2019-03-23T02:40:09.072Z,51.9
2019-03-23T02:41:21.368Z,52.6
2019-03-23T02:42:33.531Z,55.6
2019-03-23T02:43:45.641Z,54.8
2019-03-23T02:44:57.843Z,59
2019-03-23T02:46:10.100Z,52.7
2019-03-23T02:47:22.223Z,54.6
2019-03-23T02:48:34.436Z,56.9
2019-03-23T02:49:46.776Z,56.6
2019-03-23T02:52:11.079Z,58.1
2019-03-23T02:54:35.473Z,57.8
2019-03-23T02:55:47.780Z,63.5
2019-03-23T02:56:59.799Z,57.7
2019-03-23T02:58:11.983Z,61.1
2019-03-23T02:59:24.208Z,62.8
2019-03-23T03:00:36.436Z,65.5
2019-03-23T03:01:48.597Z,64.6
2019-03-23T03:04:13.897Z,70.4
2019-03-23T03:05:25.200Z,67.2
2019-03-23T03:06:37.347Z,61.2
2019-03-23T03:07:49.614Z,72.5
2019-03-23T03:09:01.762Z,68.5
2019-03-23T03:10:13.936Z,71.3
2019-03-23T03:11:26.123Z,84.3
2019-03-23T03:12:38.318Z,80.4
2019-03-23T03:13:50.661Z,81.7
2019-03-23T03:16:14.919Z,81.1
2019-03-23T03:17:27.110Z,85.2
2019-03-23T03:18:39.322Z,87.3
2019-03-23T03:19:51.624Z,81.9
2019-03-23T03:21:03.708Z,87.6
2019-03-23T03:22:16.584Z,87.7
2019-03-23T03:23:28.099Z,88.5
2019-03-23T03:24:40.293Z,89.1
2019-03-23T03:25:52.563Z,88.3
2019-03-23T03:28:16.871Z,88.5
2019-03-23T03:30:41.442Z,96.3
2019-03-23T03:31:53.461Z,91.7
2019-03-23T03:33:05.821Z,86.6
2019-03-23T03:34:17.845Z,93.1
2019-03-23T03:35:30.062Z,93.1
2019-03-23T03:36:42.324Z,93
2019-03-23T03:37:54.453Z,87.8
2019-03-23T03:42:43.201Z,88.4
2019-03-23T03:43:55.461Z,91.6
2019-03-23T03:45:07.622Z,88.1
2019-03-23T03:46:19.787Z,86.8
2019-03-23T03:47:32.093Z,95.7
2019-03-23T03:48:44.410Z,96.8
2019-03-23T03:49:56.487Z,90.6
2019-03-23T03:52:20.853Z,88.4
2019-03-23T03:53:33.113Z,87.6
2019-03-23T03:54:45.229Z,94.9
2019-03-23T03:55:57.460Z,93.2
2019-03-23T03:58:21.848Z,95.2
2019-03-23T03:59:34.020Z,99.2
2019-03-23T04:00:46.298Z,92.9
2019-03-23T04:01:58.406Z,95.8
2019-03-23T04:04:22.725Z,91.5
2019-03-23T04:06:47.247Z,90
2019-03-23T04:07:59.427Z,92
2019-03-23T04:09:11.507Z,90.2
2019-03-23T04:10:23.754Z,96
2019-03-23T04:12:48.103Z,96.5
2019-03-23T04:14:00.370Z,96.8
2019-03-23T04:16:24.694Z,99.9
2019-03-23T04:18:49.063Z,97.8
2019-03-23T04:20:01.355Z,99.5
2019-03-23T04:21:13.534Z,108.8
2019-03-23T04:22:25.737Z,105.1
2019-03-23T04:23:37.929Z,107.2
2019-03-23T04:24:50.063Z,109.4
2019-03-23T04:26:02.311Z,111
2019-03-23T04:28:26.701Z,123.3
2019-03-23T04:29:38.848Z,121
2019-03-23T04:30:51.021Z,127.5
2019-03-23T04:32:03.253Z,125.9
2019-03-23T04:33:15.420Z,115.5
2019-03-23T04:34:27.656Z,119.4
2019-03-23T04:35:39.882Z,123.8
2019-03-23T04:36:53.169Z,125.1
2019-03-23T04:38:04.188Z,131.4
2019-03-23T04:40:28.586Z,126.1
2019-03-23T04:42:53.040Z,124.8
2019-03-23T04:44:05.173Z,130.1
2019-03-23T04:45:17.466Z,124.3
2019-03-23T04:46:29.560Z,135
2019-03-23T04:47:41.871Z,124.6
2019-03-23T04:48:53.987Z,129.6
2019-03-23T04:50:06.154Z,139.8
2019-03-23T04:52:30.535Z,131.8
2019-03-23T04:54:54.931Z,142.9
2019-03-23T04:56:07.139Z,136.4
2019-03-23T04:58:31.624Z,135.2
2019-03-23T04:59:43.711Z,127.6
2019-03-23T05:00:55.906Z,124.2
2019-03-23T05:04:32.502Z,133.7
2019-03-23T05:05:44.818Z,134.9
2019-03-23T05:06:56.904Z,136.1
2019-03-23T05:08:09.205Z,138.1
2019-03-23T05:09:21.270Z,124.4
2019-03-23T05:10:33.508Z,137.3
2019-03-23T05:11:45.660Z,136
2019-03-23T05:12:57.874Z,131
2019-03-23T05:14:10.143Z,125.2
2019-03-23T05:16:34.437Z,130.1
2019-03-23T05:18:58.913Z,139.2
2019-03-23T05:20:11.046Z,130.2
2019-03-23T05:21:23.232Z,139.7
2019-03-23T05:22:35.476Z,133.6
2019-03-23T05:23:47.628Z,136.9
2019-03-23T05:24:59.860Z,139.3
2019-03-23T05:26:12.020Z,145.5
2019-03-23T05:28:36.473Z,125.3
2019-03-23T05:29:48.661Z,133.3
2019-03-23T05:31:00.808Z,145.5
2019-03-23T05:32:13.301Z,135.8
2019-03-23T05:33:25.194Z,133.5
2019-03-23T05:34:37.400Z,135.9
2019-03-23T05:35:49.756Z,144.6
2019-03-23T05:37:04.237Z,129.5
2019-03-23T05:38:13.969Z,135.3
2019-03-23T05:40:38.361Z,146.1
2019-03-23T05:43:02.931Z,137.6
2019-03-23T05:44:14.942Z,128.2
2019-03-23T05:45:27.217Z,130.6
2019-03-23T05:46:39.364Z,133.8
2019-03-23T05:47:51.564Z,137.3
2019-03-23T05:49:03.717Z,139.4
2019-03-23T05:50:15.983Z,139.4
2019-03-23T05:52:40.442Z,138.2
2019-03-23T05:53:52.589Z,143.8
2019-03-23T05:56:16.899Z,139.9
2019-03-23T05:57:29.102Z,138.9
2019-03-23T05:58:41.355Z,138.2
2019-03-23T05:59:53.492Z,142.2
2019-03-23T06:01:05.679Z,139.5
2019-03-23T06:02:17.870Z,141.7
2019-03-23T06:04:42.333Z,142
2019-03-23T06:05:54.510Z,153
2019-03-23T06:07:06.662Z,152.8
2019-03-23T06:08:18.969Z,156
2019-03-23T06:09:31.070Z,146.1
2019-03-23T06:10:43.242Z,153.7
2019-03-23T06:11:55.440Z,150
2019-03-23T06:13:07.631Z,144
2019-03-23T06:14:19.815Z,153.3
2019-03-23T06:16:44.286Z,150
2019-03-23T06:17:56.468Z,149.4
2019-03-23T06:19:09.219Z,152.6
2019-03-23T06:20:20.988Z,153.2
2019-03-23T06:21:33.147Z,147.5
2019-03-23T06:22:45.219Z,144
2019-03-23T06:23:57.387Z,152.7
2019-03-23T06:25:09.582Z,150.2
2019-03-23T06:26:21.787Z,150
2019-03-23T06:28:46.241Z,153.7
2019-03-23T06:31:10.555Z,171.3
2019-03-23T06:32:22.893Z,165.7
2019-03-23T06:33:35.054Z,163
2019-03-23T06:34:47.142Z,157.7
2019-03-23T06:37:11.535Z,178.9
2019-03-23T06:38:23.857Z,171.1
2019-03-23T06:40:48.159Z,169.7
2019-03-23T06:42:00.475Z,186.4
2019-03-23T06:43:12.531Z,170.8
2019-03-23T06:44:24.852Z,167.1
2019-03-23T06:45:36.958Z,196.4
2019-03-23T06:46:49.123Z,177.4
2019-03-23T06:48:01.369Z,174.1
2019-03-23T06:49:13.492Z,177.6
2019-03-23T06:50:25.672Z,188.5
2019-03-23T06:52:50.076Z,185.3
2019-03-23T06:55:14.555Z,207.1
2019-03-23T06:56:26.794Z,206.8
2019-03-23T06:57:38.961Z,225.7
2019-03-23T06:58:51.119Z,248
2019-03-23T07:00:03.380Z,223.5
2019-03-23T07:01:15.633Z,198.4
2019-03-23T07:02:28.094Z,263.6
2019-03-23T07:04:52.053Z,233.8
2019-03-23T07:07:16.431Z,228
2019-03-23T07:08:28.634Z,228.1
2019-03-23T07:09:40.815Z,232.1
2019-03-23T07:10:53.029Z,223
2019-03-23T07:12:05.235Z,252
2019-03-23T07:13:17.448Z,237.6
2019-03-23T07:16:53.983Z,220.7
2019-03-23T07:19:18.435Z,238.5
2019-03-23T07:20:30.709Z,269.2
2019-03-23T07:21:42.740Z,244.8
2019-03-23T07:22:55.035Z,259
2019-03-23T07:24:07.147Z,247.1
2019-03-23T07:25:19.414Z,205.6
2019-03-23T07:26:31.524Z,206
2019-03-23T07:28:55.914Z,226.2
2019-03-23T07:30:08.144Z,228.8
2019-03-23T07:31:20.312Z,226.2
2019-03-23T07:32:32.546Z,224.3
2019-03-23T07:33:44.791Z,214.5
2019-03-23T07:34:57.052Z,212
2019-03-23T07:36:09.071Z,215.9
2019-03-23T07:37:21.275Z,222.5
2019-03-23T07:38:33.533Z,200.6
2019-03-23T07:39:45.749Z,196.3
2019-03-23T07:40:57.850Z,209
2019-03-23T07:43:22.253Z,205.6
2019-03-23T07:44:34.437Z,192.6
2019-03-23T07:45:46.623Z,187.2
2019-03-23T07:46:58.898Z,206.2
2019-03-23T07:48:11.111Z,230.6
2019-03-23T07:49:23.206Z,212.3
2019-03-23T07:50:35.402Z,218.7
2019-03-23T07:52:59.785Z,235.6
2019-03-23T07:54:11.984Z,216.1
2019-03-23T07:55:24.273Z,205.4
2019-03-23T07:56:36.424Z,221.6
2019-03-23T07:57:48.548Z,239
2019-03-23T07:59:00.872Z,212
2019-03-23T08:00:12.940Z,198.9
2019-03-23T08:01:25.145Z,209.1
2019-03-23T08:02:37.458Z,190.2
2019-03-23T08:05:01.893Z,189.1
2019-03-23T08:07:26.175Z,179.3
2019-03-23T08:08:38.328Z,174
2019-03-23T08:09:50.583Z,172.9
2019-03-23T08:11:02.693Z,171
2019-03-23T08:12:14.880Z,179.3
2019-03-23T08:13:27.144Z,186.1
2019-03-23T08:14:39.275Z,188.4
2019-03-23T08:17:03.702Z,177.4
2019-03-23T08:18:16.058Z,165
2019-03-23T08:19:28.114Z,164.1
2019-03-23T08:20:40.585Z,162.9
2019-03-23T08:21:52.432Z,166.1
2019-03-23T08:23:04.630Z,154.6
2019-03-23T08:24:16.843Z,157.7
2019-03-23T08:25:29.130Z,160
2019-03-23T08:26:41.362Z,156.9
2019-03-23T08:29:05.590Z,139.3
2019-03-23T08:30:17.910Z,125.8
2019-03-23T08:31:30.000Z,125
2019-03-23T08:32:42.194Z,121.5
2019-03-23T08:33:54.394Z,112.9
2019-03-23T08:35:06.691Z,115.3
2019-03-23T08:36:18.760Z,118.9
2019-03-23T08:37:31.011Z,118.2
2019-03-23T08:38:43.169Z,113.2
2019-03-23T08:41:07.552Z,121.2
2019-03-23T08:42:19.854Z,120.4
2019-03-23T08:43:31.931Z,111.5
2019-03-23T08:44:44.122Z,94.9
2019-03-23T08:45:56.313Z,106.6
2019-03-23T08:47:08.498Z,101.7
2019-03-23T08:48:20.767Z,90.9
2019-03-23T08:49:32.922Z,88.8
2019-03-23T08:50:45.079Z,91.5
2019-03-23T08:53:09.474Z,96.2
2019-03-23T08:54:21.899Z,99.8
2019-03-23T08:56:46.056Z,89.5
2019-03-23T08:57:58.317Z,95.3
2019-03-23T08:59:10.453Z,85.6
2019-03-23T09:00:22.636Z,87.9
2019-03-23T09:01:34.855Z,86.9
2019-03-23T09:02:47.104Z,93.7
2019-03-23T09:05:11.475Z,87.7
2019-03-23T09:06:23.715Z,91
2019-03-23T09:07:35.802Z,84.1
2019-03-23T09:08:48.004Z,90.2
2019-03-23T09:10:00.261Z,85.9
2019-03-23T09:11:12.375Z,84.8
2019-03-23T09:12:24.662Z,92.3
2019-03-23T09:13:36.794Z,82.5
2019-03-23T09:17:13.461Z,75.6
2019-03-23T09:18:25.552Z,80.3
2019-03-23T09:19:37.736Z,82
2019-03-23T09:20:50.174Z,78.8
2019-03-23T09:22:02.114Z,81.2
2019-03-23T09:23:14.341Z,80.9
2019-03-23T09:24:26.707Z,80.5
2019-03-23T09:25:38.789Z,77.1
2019-03-23T09:26:50.971Z,75.8
2019-03-23T09:29:15.390Z,73.3
2019-03-23T09:30:27.580Z,69.9
2019-03-23T09:31:39.673Z,66.1
2019-03-23T09:32:51.987Z,71.2
2019-03-23T09:34:04.094Z,66.2
2019-03-23T09:35:16.435Z,66.8
2019-03-23T09:36:28.432Z,65.8
2019-03-23T09:37:40.704Z,66.2
2019-03-23T09:38:52.834Z,60.2
2019-03-23T09:41:17.301Z,65.3
2019-03-23T09:43:41.663Z,63.9
2019-03-23T09:44:53.942Z,65.5
2019-03-23T09:46:05.994Z,63.3
2019-03-23T09:47:18.204Z,61
2019-03-23T09:49:42.653Z,65.5
2019-03-23T09:50:54.758Z,65.3
2019-03-23T09:53:19.164Z,64.8
2019-03-23T09:55:43.617Z,67.1
2019-03-23T09:56:55.745Z,59.7
2019-03-23T09:58:08.023Z,67.1
2019-03-23T09:59:20.174Z,66
2019-03-23T10:00:32.372Z,61
2019-03-23T10:01:44.545Z,59.7
2019-03-23T10:02:56.757Z,61
2019-03-23T10:04:08.975Z,59
2019-03-23T10:05:21.247Z,58.7
2019-03-23T10:06:33.489Z,60.1
2019-03-23T10:07:45.479Z,59.1
2019-03-23T10:08:57.674Z,56.6
2019-03-23T10:10:09.876Z,56.6
2019-03-23T10:11:22.064Z,55.3
2019-03-23T10:12:34.293Z,59
2019-03-23T10:13:46.447Z,59.2
2019-03-23T10:14:58.898Z,57.1
2019-03-23T10:17:23.114Z,57.8
2019-03-23T10:19:47.503Z,56.2
2019-03-23T10:20:59.631Z,56.4
2019-03-23T10:22:11.816Z,58.5
2019-03-23T10:23:24.066Z,53.7
2019-03-23T10:24:36.201Z,56.5
2019-03-23T10:25:48.402Z,55.3
2019-03-23T10:27:00.583Z,57.9
2019-03-23T10:29:25.054Z,52.2
2019-03-23T10:31:49.441Z,56.8
2019-03-23T10:33:01.694Z,57.3
2019-03-23T10:34:13.773Z,54.4
2019-03-23T10:35:26.004Z,56.7
2019-03-23T10:36:38.135Z,57.4
2019-03-23T10:37:50.319Z,54.7
2019-03-23T10:39:02.539Z,56.3
2019-03-23T10:41:26.899Z,54.9
2019-03-23T10:42:39.184Z,56.4
2019-03-23T10:43:51.289Z,56.1
2019-03-23T10:45:03.599Z,56.8
2019-03-23T10:46:15.676Z,54.5
2019-03-23T10:47:27.875Z,54.4
2019-03-23T10:48:40.258Z,59.7
2019-03-23T10:49:52.261Z,60.5
2019-03-23T10:51:04.564Z,55.8
2019-03-23T10:53:28.893Z,58.6
2019-03-23T10:54:41.039Z,58.6
2019-03-23T10:55:53.230Z,61.1
2019-03-23T10:57:05.449Z,59.2
2019-03-23T10:58:17.885Z,58.8
2019-03-23T10:59:29.949Z,60.8
2019-03-23T11:00:44.073Z,60.6
2019-03-23T11:01:54.191Z,55.4
2019-03-23T11:03:06.406Z,59.1
2019-03-23T11:05:30.866Z,60.8
2019-03-23T11:07:55.246Z,54.9
2019-03-23T11:09:07.356Z,56.4
2019-03-23T11:10:19.554Z,54.1
2019-03-23T11:11:31.774Z,58.3
2019-03-23T11:12:44.003Z,58.9
2019-03-23T11:13:56.158Z,57.5
2019-03-23T11:15:08.324Z,57.8
2019-03-23T11:17:32.705Z,59.2
2019-03-23T11:18:44.908Z,56.2
2019-03-23T11:19:57.110Z,53.6
2019-03-23T11:21:09.303Z,59.4
2019-03-23T11:22:21.503Z,60.2
2019-03-23T11:23:33.674Z,58.5
2019-03-23T11:24:45.897Z,65.1
2019-03-23T11:25:58.061Z,59
2019-03-23T11:27:10.250Z,62.4
2019-03-23T11:29:34.686Z,57.2
2019-03-23T11:30:46.840Z,57.7
2019-03-23T11:31:59.034Z,56.4
2019-03-23T11:33:11.360Z,56.6
2019-03-23T11:34:23.444Z,56.3
2019-03-23T11:35:35.715Z,60.1
2019-03-23T11:36:47.829Z,62.3
2019-03-23T11:37:59.999Z,56.8
2019-03-23T11:39:12.212Z,59.4
2019-03-23T11:41:36.658Z,54.7
2019-03-23T11:42:48.933Z,60.6
2019-03-23T11:44:00.995Z,56.5
2019-03-23T11:45:13.160Z,58
2019-03-23T11:46:25.352Z,59.2
2019-03-23T11:47:37.630Z,57.1
2019-03-23T11:48:49.820Z,61.3
2019-03-23T11:50:02.007Z,61.8
2019-03-23T11:51:14.203Z,61.9
2019-03-23T11:53:38.599Z,59.3
2019-03-23T11:54:50.734Z,55.9
2019-03-23T11:56:02.951Z,56.5
2019-03-23T11:57:15.171Z,59.7
2019-03-23T11:58:27.318Z,58.7
2019-03-23T11:59:39.553Z,63.9
2019-03-23T12:00:51.727Z,61.4
2019-03-23T12:02:03.973Z,64
2019-03-23T12:03:16.089Z,61.5
2019-03-23T12:05:40.532Z,63.9
2019-03-23T12:08:04.846Z,64
2019-03-23T12:09:17.121Z,67.6
2019-03-23T12:10:29.255Z,60.4
2019-03-23T12:11:41.513Z,63.4
2019-03-23T12:12:53.625Z,63.6
2019-03-23T12:14:05.844Z,67
2019-03-23T12:15:17.997Z,63.3
2019-03-23T12:17:42.393Z,64.6
2019-03-23T12:18:54.583Z,65.6
2019-03-23T12:20:06.800Z,60.2
2019-03-23T12:21:18.998Z,63.5
2019-03-23T12:22:31.339Z,67.7
2019-03-23T12:23:43.399Z,66.3
2019-03-23T12:26:07.753Z,60.5
2019-03-23T12:27:19.945Z,63
2019-03-23T12:29:44.347Z,59.9
2019-03-23T12:30:56.600Z,65.7
2019-03-23T12:32:08.726Z,64.8
2019-03-23T12:33:20.940Z,61.7
2019-03-23T12:34:33.197Z,67.2
2019-03-23T12:35:45.312Z,65.4
2019-03-23T12:36:57.990Z,66.4
2019-03-23T12:38:09.763Z,67.7
2019-03-23T12:39:21.888Z,68.3
2019-03-23T12:41:46.451Z,71.4
2019-03-23T12:44:11.202Z,64
2019-03-23T12:45:23.616Z,68.8
2019-03-23T12:46:35.380Z,63.1
2019-03-23T12:47:47.352Z,61.8
2019-03-23T12:48:59.473Z,63
2019-03-23T12:50:11.618Z,63.2
2019-03-23T12:51:23.837Z,64
2019-03-23T12:53:48.246Z,57.3
2019-03-23T12:55:00.413Z,55
2019-03-23T12:56:13.879Z,57.8
2019-03-23T12:57:24.792Z,58
2019-03-23T12:59:49.184Z,54.9
2019-03-23T13:01:01.495Z,59.1
2019-03-23T13:02:13.616Z,57.1
2019-03-23T13:03:25.743Z,53.6
2019-03-23T13:05:50.232Z,53.7
2019-03-23T13:07:02.679Z,58.6
2019-03-23T13:08:14.528Z,56.4
2019-03-23T13:09:26.851Z,58.2
2019-03-23T13:10:39.020Z,54.5
2019-03-23T13:11:51.132Z,56.4
2019-03-23T13:13:03.339Z,55.9
2019-03-23T13:14:15.564Z,53.2
2019-03-23T13:15:27.720Z,54.7
2019-03-23T13:17:52.127Z,52.9
2019-03-23T13:20:16.517Z,47
2019-03-23T13:21:28.805Z,51
2019-03-23T13:22:40.854Z,51.5
2019-03-23T13:23:53.127Z,49.7
2019-03-23T13:25:05.316Z,49.1
2019-03-23T13:26:17.515Z,46.1
2019-03-23T13:27:29.694Z,49.7
2019-03-23T13:29:54.011Z,46.9
2019-03-23T13:32:18.478Z,47.4
2019-03-23T13:33:30.588Z,47.8
2019-03-23T13:34:42.789Z,47.9
2019-03-23T13:35:54.993Z,45.1
2019-03-23T13:37:07.438Z,46.2
2019-03-23T13:38:19.450Z,43.4
2019-03-23T13:39:31.644Z,43.2
2019-03-23T13:41:56.092Z,43.4
2019-03-23T13:43:08.217Z,42.7
2019-03-23T13:45:32.583Z,44.9
2019-03-23T13:46:44.719Z,43.6
2019-03-23T13:47:56.925Z,48.6
2019-03-23T13:49:09.132Z,45.6
2019-03-23T13:50:21.317Z,44
2019-03-23T13:51:33.515Z,43.7
2019-03-23T13:53:57.918Z,44.4
2019-03-23T13:55:10.148Z,42.5
2019-03-23T13:56:22.273Z,42.6
2019-03-23T13:57:34.645Z,45.1
2019-03-23T13:58:46.733Z,44.7
2019-03-23T13:59:58.903Z,43.5
2019-03-23T14:01:11.046Z,42.1
2019-03-23T14:02:23.240Z,44.7
2019-03-23T14:03:35.495Z,44.1
2019-03-23T14:05:59.896Z,45.4
2019-03-23T14:08:24.236Z,43.8
2019-03-23T14:09:36.407Z,43.8
2019-03-23T14:10:49.264Z,42.8
2019-03-23T14:12:01.302Z,44
2019-03-23T14:13:12.990Z,43.7
2019-03-23T14:14:25.378Z,45.9
2019-03-23T14:15:37.364Z,43.4
2019-03-23T14:18:01.838Z,43.1
2019-03-23T14:19:14.032Z,45
2019-03-23T14:20:26.267Z,42.1
2019-03-23T14:21:38.465Z,41.7
2019-03-23T14:22:50.615Z,40.5
2019-03-23T14:24:02.723Z,42.9
2019-03-23T14:25:14.998Z,39.1
2019-03-23T14:26:27.180Z,43.1
2019-03-23T14:27:39.331Z,43.4
2019-03-23T14:30:03.706Z,41.5
2019-03-23T14:31:16.244Z,40.8
2019-03-23T14:32:28.592Z,47
2019-03-23T14:33:40.278Z,43.4
2019-03-23T14:34:52.599Z,41.6
2019-03-23T14:36:04.667Z,41.8
2019-03-23T14:37:16.943Z,41.6
2019-03-23T14:38:29.067Z,40.3
2019-03-23T14:39:41.329Z,41.7
2019-03-23T14:42:05.644Z,39.6
2019-03-23T14:43:18.020Z,43.7
2019-03-23T14:44:30.044Z,44
2019-03-23T14:45:42.403Z,41.9
2019-03-23T14:46:54.422Z,44.3
2019-03-23T14:48:06.622Z,42.2
2019-03-23T14:49:18.863Z,42.6
2019-03-23T14:50:31.003Z,42.7
2019-03-23T14:51:43.176Z,44.4
2019-03-23T14:54:07.752Z,42.3
2019-03-23T14:55:19.889Z,44.1
2019-03-23T14:56:31.949Z,41.2
2019-03-23T14:57:44.192Z,42
2019-03-23T14:58:56.351Z,45.1
2019-03-23T15:00:08.536Z,39
2019-03-23T15:01:20.723Z,42.7
2019-03-23T15:02:32.921Z,44.5
2019-03-23T15:06:09.572Z,43.8
2019-03-23T15:07:21.768Z,43.3
2019-03-23T15:08:33.907Z,45.3
2019-03-23T15:09:46.141Z,44.6
2019-03-23T15:10:58.271Z,43.7
2019-03-23T15:12:10.483Z,44.8
2019-03-23T15:13:22.660Z,41.3
2019-03-23T15:14:34.872Z,41.1
2019-03-23T15:15:47.050Z,38.3
2019-03-23T15:18:11.449Z,41.1
2019-03-23T15:19:23.636Z,42.1
2019-03-23T15:20:35.832Z,41.4
2019-03-23T15:21:48.027Z,39
2019-03-23T15:23:00.219Z,42.1
2019-03-23T15:24:12.497Z,44.2
2019-03-23T15:25:24.688Z,42.6
2019-03-23T15:26:36.786Z,41
2019-03-23T15:27:49.060Z,42.3
2019-03-23T15:30:13.472Z,46.2
2019-03-23T15:31:25.584Z,42.5
2019-03-23T15:32:37.759Z,44.7
2019-03-23T15:33:50.047Z,44.3
2019-03-23T15:35:02.154Z,39.7
2019-03-23T15:36:14.436Z,43
2019-03-23T15:37:26.553Z,44
2019-03-23T15:38:38.776Z,43.1
2019-03-23T15:39:50.949Z,44.5
2019-03-23T15:42:15.336Z,44
2019-03-23T15:43:27.544Z,42.5
2019-03-23T15:44:39.741Z,40.5
2019-03-23T15:45:51.973Z,44
2019-03-23T15:47:04.091Z,46.5
2019-03-23T15:48:16.438Z,42.7
2019-03-23T15:49:28.503Z,41.6
2019-03-23T15:50:40.747Z,41.9
2019-03-23T15:51:52.861Z,41.5
2019-03-23T15:54:17.447Z,42.4
2019-03-23T15:55:29.449Z,45.6
2019-03-23T15:56:41.649Z,41.3
2019-03-23T15:57:53.902Z,41
2019-03-23T15:59:06.123Z,42.6
2019-03-23T16:00:18.227Z,44.3
2019-03-23T16:01:31.017Z,43.3
2019-03-23T16:02:42.712Z,43.9
2019-03-23T16:03:54.815Z,47.5
2019-03-23T16:06:19.188Z,47.7
2019-03-23T16:07:31.396Z,44.1
2019-03-23T16:08:43.599Z,43.9
2019-03-23T16:09:55.785Z,44.3
2019-03-23T16:11:07.971Z,45.5
2019-03-23T16:12:20.953Z,46
2019-03-23T16:14:44.554Z,44.7
2019-03-23T16:15:56.823Z,43.5
2019-03-23T16:18:21.125Z,46.5
2019-03-23T16:19:33.343Z,45.1
2019-03-23T16:20:45.525Z,45.4
2019-03-23T16:21:57.765Z,45.2
2019-03-23T16:23:10.017Z,46.2
2019-03-23T16:24:22.109Z,46
2019-03-23T16:25:34.298Z,44.6
2019-03-23T16:26:46.577Z,47.1
2019-03-23T16:27:58.718Z,47
2019-03-23T16:30:23.079Z,47.8
2019-03-23T16:31:35.306Z,45.6
2019-03-23T16:32:47.572Z,47.8
2019-03-23T16:33:59.745Z,47.8
2019-03-23T16:35:11.846Z,46
2019-03-23T16:36:24.037Z,48.2
2019-03-23T16:37:36.229Z,47.8
2019-03-23T16:38:48.440Z,48.9
2019-03-23T16:40:00.753Z,47.3
2019-03-23T16:42:25.022Z,46.4
2019-03-23T16:43:37.554Z,46.7
2019-03-23T16:44:49.411Z,49
2019-03-23T16:46:01.595Z,49.2
2019-03-23T16:47:13.784Z,46.4
2019-03-23T16:48:26.015Z,46.9
2019-03-23T16:49:38.244Z,49
2019-03-23T16:50:50.373Z,47.2
2019-03-23T16:52:02.688Z,48.4
2019-03-23T16:54:26.990Z,52.4
2019-03-23T16:55:39.188Z,50.3
2019-03-23T16:56:51.525Z,46.3
2019-03-23T16:58:03.620Z,51.3
2019-03-23T16:59:15.738Z,46.4
2019-03-23T17:00:28.020Z,49.5
2019-03-23T17:01:40.152Z,49.9
2019-03-23T17:02:52.314Z,51.9
2019-03-23T17:04:05.167Z,51.1
2019-03-23T17:06:28.906Z,49.3
2019-03-23T17:07:41.186Z,48.6
2019-03-23T17:08:53.285Z,49.8
2019-03-23T17:10:05.610Z,49.5
2019-03-23T17:11:17.686Z,49.3
2019-03-23T17:12:29.881Z,49
2019-03-23T17:13:42.168Z,51.4
2019-03-23T17:14:54.348Z,51.6
2019-03-23T17:16:08.526Z,50.7
2019-03-23T17:18:32.062Z,50.4
2019-03-23T17:19:43.073Z,50.6
2019-03-23T17:20:55.271Z,50.9
2019-03-23T17:22:07.462Z,52.9
2019-03-23T17:23:19.633Z,53.2
2019-03-23T17:24:31.886Z,52.3
2019-03-23T17:25:44.260Z,52.5
2019-03-23T17:26:56.212Z,52.9
2019-03-23T17:28:08.454Z,53.8
2019-03-23T17:30:32.804Z,47
2019-03-23T17:31:45.008Z,48.7
2019-03-23T17:32:57.190Z,49.1
2019-03-23T17:34:12.523Z,52.7
2019-03-23T17:35:21.738Z,52.6
2019-03-23T17:36:33.857Z,48.4
2019-03-23T17:37:45.975Z,53.6
2019-03-23T17:38:58.185Z,48.3
2019-03-23T17:40:10.382Z,51.4
2019-03-23T17:42:34.760Z,49
2019-03-23T17:44:59.142Z,51.8
2019-03-23T17:46:11.355Z,49.8
2019-03-23T17:47:23.569Z,53.3
2019-03-23T17:48:35.872Z,53
2019-03-23T17:49:47.939Z,51.4
2019-03-23T17:51:00.202Z,48.2
2019-03-23T17:52:12.414Z,48.6
2019-03-23T17:53:24.537Z,52.4
2019-03-23T17:54:36.794Z,53
2019-03-23T17:57:01.220Z,50.9
2019-03-23T17:58:13.378Z,50.5
2019-03-23T17:59:25.489Z,49.9
2019-03-23T18:00:37.686Z,51.6
2019-03-23T18:01:49.898Z,53.9
2019-03-23T18:03:02.090Z,51.5
2019-03-23T18:04:14.269Z,52
2019-03-23T18:06:38.697Z,52.2
2019-03-23T18:07:51.092Z,51.7
2019-03-23T18:09:03.207Z,51.5
2019-03-23T18:10:15.256Z,51.2
2019-03-23T18:11:27.436Z,51.5
2019-03-23T18:12:39.629Z,51.4
2019-03-23T18:13:51.837Z,50.3
2019-03-23T18:15:04.026Z,49.6
2019-03-23T18:16:16.421Z,51.4
2019-03-23T18:17:28.431Z,52.8
2019-03-23T18:18:43.070Z,53.1
2019-03-23T18:19:53.008Z,51.5
2019-03-23T18:21:05.093Z,52.5
2019-03-23T18:22:17.305Z,51.1
2019-03-23T18:23:29.401Z,49.9
2019-03-23T18:24:41.600Z,53.4
2019-03-23T18:25:53.868Z,50.5
2019-03-23T18:27:06.089Z,52.4
2019-03-23T18:28:18.178Z,51.5
2019-03-23T18:30:42.771Z,49.5
2019-03-23T18:31:54.939Z,51.5
2019-03-23T18:33:06.964Z,51.2
2019-03-23T18:34:19.233Z,53.1
2019-03-23T18:35:31.478Z,52.1
2019-03-23T18:36:43.651Z,52.4
2019-03-23T18:37:55.755Z,54.2
2019-03-23T18:39:07.925Z,52
2019-03-23T18:40:20.207Z,52
2019-03-23T18:42:44.511Z,54.2
2019-03-23T18:43:56.769Z,54.4